Greenville Airport (GRE)
Greenville, IL
Field Elevation: 540
Lat: 38°50.00N  Long: 89°22.00W
CTAF/Unicom Freq: 123.0500
   
     For Weather-by-Phone, call (618) 664-1939
Weather Advisories
2019-11-22   03:36 Z
Altimeter 30.06" Hg
Wind 340° @ 12 KT
Gusts 16 KT
Visibility 10 SM
Temperature 7° C (45° F)
Dewpoint 4° C (39° F)
Relative Humidity 83%
Density Altitude --
Condensation Altitude 1,900 feet
Wind Chill: 3° C (37° F)
Wind and Runways
Indicated Runway = 36
Headwind = 11 kt
Crosswind = 4 kt
History
 
 
 
More Info
 
NOAA Forecast
 
Airport IQ 5010
(FLV) Sherman Airfield
(VLA) Vandalia
 
about Belfort Instrument
 
FAA Disclaimer: The data displayed is for advisory purposes only and is not to be used for flight planning or operations. For official data, please call (618) 664-1939 to hear the current automated AWOS voice message.
  METAR GRE 220336Z AUTO 34012G16KT 10 SM 07/04 A3006